sensor_id;sensor_type;location;lat;lon;timestamp;P1;durP1;ratioP1;P2;durP2;ratioP2
40849;SDS011;26571;41.610;25.380;2022-12-16T00:00:27;14.00;;;12.55;;
40849;SDS011;26571;41.610;25.380;2022-12-16T00:02:53;15.63;;;13.88;;
40849;SDS011;26571;41.610;25.380;2022-12-16T00:05:18;19.67;;;12.75;;
40849;SDS011;26571;41.610;25.380;2022-12-16T00:07:44;19.38;;;12.70;;
40849;SDS011;26571;41.610;25.380;2022-12-16T00:10:10;21.13;;;12.60;;
40849;SDS011;26571;41.610;25.380;2022-12-16T00:12:36;14.70;;;13.25;;
40849;SDS011;26571;41.610;25.380;2022-12-16T00:15:02;17.30;;;13.90;;
40849;SDS011;26571;41.610;25.380;2022-12-16T00:17:27;16.40;;;14.43;;
40849;SDS011;26571;41.610;25.380;2022-12-16T00:19:53;17.13;;;14.07;;
40849;SDS011;26571;41.610;25.380;2022-12-16T00:22:18;14.35;;;12.90;;
40849;SDS011;26571;41.610;25.380;2022-12-16T00:24:43;20.20;;;14.43;;
40849;SDS011;26571;41.610;25.380;2022-12-16T00:27:09;21.23;;;14.88;;
40849;SDS011;26571;41.610;25.380;2022-12-16T00:29:34;26.52;;;16.38;;
40849;SDS011;26571;41.610;25.380;2022-12-16T00:32:00;20.65;;;17.27;;
40849;SDS011;26571;41.610;25.380;2022-12-16T00:34:26;27.23;;;14.37;;
40849;SDS011;26571;41.610;25.380;2022-12-16T00:36:52;21.58;;;12.25;;
40849;SDS011;26571;41.610;25.380;2022-12-16T00:39:17;17.00;;;12.70;;
40849;SDS011;26571;41.610;25.380;2022-12-16T00:41:43;19.88;;;14.45;;
40849;SDS011;26571;41.610;25.380;2022-12-16T00:44:08;17.38;;;14.93;;
40849;SDS011;26571;41.610;25.380;2022-12-16T00:46:34;20.08;;;14.15;;
40849;SDS011;26571;41.610;25.380;2022-12-16T00:48:59;18.40;;;14.35;;
40849;SDS011;26571;41.610;25.380;2022-12-16T00:51:24;21.70;;;17.42;;
40849;SDS011;26571;41.610;25.380;2022-12-16T00:53:50;21.95;;;17.02;;
40849;SDS011;26571;41.610;25.380;2022-12-16T00:56:15;19.40;;;15.77;;
40849;SDS011;26571;41.610;25.380;2022-12-16T00:58:44;25.92;;;19.58;;
40849;SDS011;26571;41.610;25.380;2022-12-16T01:01:10;20.52;;;16.52;;
40849;SDS011;26571;41.610;25.380;2022-12-16T01:03:36;23.50;;;17.88;;
40849;SDS011;26571;41.610;25.380;2022-12-16T01:06:15;29.10;;;21.23;;
40849;SDS011;26571;41.610;25.380;2022-12-16T01:08:41;22.08;;;18.70;;
40849;SDS011;26571;41.610;25.380;2022-12-16T01:11:13;28.48;;;22.67;;
40849;SDS011;26571;41.610;25.380;2022-12-16T01:13:42;27.27;;;19.95;;
40849;SDS011;26571;41.610;25.380;2022-12-16T01:16:08;24.58;;;19.73;;
40849;SDS011;26571;41.610;25.380;2022-12-16T01:18:34;26.17;;;18.05;;
40849;SDS011;26571;41.610;25.380;2022-12-16T01:21:03;22.48;;;18.33;;
40849;SDS011;26571;41.610;25.380;2022-12-16T01:23:31;29.25;;;19.90;;
40849;SDS011;26571;41.610;25.380;2022-12-16T01:25:57;28.80;;;19.02;;
40849;SDS011;26571;41.610;25.380;2022-12-16T01:28:24;24.13;;;17.45;;
40849;SDS011;26571;41.610;25.380;2022-12-16T01:30:54;35.22;;;28.30;;
40849;SDS011;26571;41.610;25.380;2022-12-16T01:33:25;27.40;;;19.25;;
40849;SDS011;26571;41.610;25.380;2022-12-16T01:35:58;28.02;;;22.65;;
40849;SDS011;26571;41.610;25.380;2022-12-16T01:38:25;27.45;;;20.58;;
40849;SDS011;26571;41.610;25.380;2022-12-16T01:40:50;31.23;;;21.60;;
40849;SDS011;26571;41.610;25.380;2022-12-16T01:43:16;31.33;;;22.10;;
40849;SDS011;26571;41.610;25.380;2022-12-16T01:45:42;30.55;;;18.73;;
40849;SDS011;26571;41.610;25.380;2022-12-16T01:50:52;32.20;;;20.98;;
40849;SDS011;26571;41.610;25.380;2022-12-16T01:53:24;28.50;;;21.70;;
40849;SDS011;26571;41.610;25.380;2022-12-16T01:55:50;31.92;;;21.15;;
40849;SDS011;26571;41.610;25.380;2022-12-16T01:58:20;37.65;;;20.67;;
40849;SDS011;26571;41.610;25.380;2022-12-16T02:00:49;34.33;;;20.33;;
40849;SDS011;26571;41.610;25.380;2022-12-16T02:03:14;45.03;;;22.20;;
40849;SDS011;26571;41.610;25.380;2022-12-16T02:05:40;36.80;;;20.35;;
40849;SDS011;26571;41.610;25.380;2022-12-16T02:08:14;48.90;;;24.93;;
40849;SDS011;26571;41.610;25.380;2022-12-16T02:27:37;54.72;;;26.02;;
40849;SDS011;26571;41.610;25.380;2022-12-16T02:38:16;52.00;;;24.77;;
40849;SDS011;26571;41.610;25.380;2022-12-16T02:40:51;59.33;;;23.35;;
40849;SDS011;26571;41.610;25.380;2022-12-16T02:46:12;41.08;;;22.10;;
40849;SDS011;26571;41.610;25.380;2022-12-16T02:48:38;48.60;;;21.55;;
40849;SDS011;26571;41.610;25.380;2022-12-16T02:51:03;46.92;;;21.80;;
40849;SDS011;26571;41.610;25.380;2022-12-16T02:53:30;31.73;;;19.27;;
40849;SDS011;26571;41.610;25.380;2022-12-16T03:04:00;27.25;;;17.52;;
40849;SDS011;26571;41.610;25.380;2022-12-16T03:06:30;29.77;;;18.77;;
40849;SDS011;26571;41.610;25.380;2022-12-16T03:08:59;34.50;;;18.15;;
40849;SDS011;26571;41.610;25.380;2022-12-16T03:11:28;26.73;;;16.15;;
40849;SDS011;26571;41.610;25.380;2022-12-16T03:13:55;29.27;;;19.25;;
40849;SDS011;26571;41.610;25.380;2022-12-16T03:16:23;32.00;;;16.00;;
40849;SDS011;26571;41.610;25.380;2022-12-16T03:18:54;33.20;;;18.30;;
40849;SDS011;26571;41.610;25.380;2022-12-16T03:21:23;30.58;;;18.52;;
40849;SDS011;26571;41.610;25.380;2022-12-16T03:23:54;33.22;;;18.77;;
40849;SDS011;26571;41.610;25.380;2022-12-16T03:26:34;39.30;;;20.55;;
40849;SDS011;26571;41.610;25.380;2022-12-16T03:29:45;30.83;;;19.55;;
40849;SDS011;26571;41.610;25.380;2022-12-16T03:32:29;23.30;;;17.60;;
40849;SDS011;26571;41.610;25.380;2022-12-16T03:35:19;30.42;;;18.55;;
40849;SDS011;26571;41.610;25.380;2022-12-16T03:37:49;33.35;;;19.52;;
40849;SDS011;26571;41.610;25.380;2022-12-16T03:40:17;25.60;;;18.17;;
40849;SDS011;26571;41.610;25.380;2022-12-16T03:42:45;24.83;;;16.13;;
40849;SDS011;26571;41.610;25.380;2022-12-16T03:45:13;23.42;;;17.58;;
40849;SDS011;26571;41.610;25.380;2022-12-16T03:47:47;22.08;;;16.30;;
40849;SDS011;26571;41.610;25.380;2022-12-16T03:50:14;17.52;;;14.52;;
40849;SDS011;26571;41.610;25.380;2022-12-16T03:52:39;18.88;;;15.45;;
40849;SDS011;26571;41.610;25.380;2022-12-16T03:55:05;30.17;;;17.35;;
40849;SDS011;26571;41.610;25.380;2022-12-16T03:57:30;44.55;;;20.83;;
40849;SDS011;26571;41.610;25.380;2022-12-16T03:59:56;28.40;;;19.88;;
40849;SDS011;26571;41.610;25.380;2022-12-16T04:02:21;28.73;;;19.63;;
40849;SDS011;26571;41.610;25.380;2022-12-16T04:04:46;27.90;;;18.02;;
40849;SDS011;26571;41.610;25.380;2022-12-16T04:07:12;25.38;;;21.38;;
40849;SDS011;26571;41.610;25.380;2022-12-16T04:09:48;34.70;;;21.42;;
40849;SDS011;26571;41.610;25.380;2022-12-16T04:12:14;71.38;;;22.13;;
40849;SDS011;26571;41.610;25.380;2022-12-16T04:14:58;54.30;;;22.13;;
40849;SDS011;26571;41.610;25.380;2022-12-16T04:17:42;31.20;;;18.17;;
40849;SDS011;26571;41.610;25.380;2022-12-16T04:20:34;27.73;;;19.33;;
40849;SDS011;26571;41.610;25.380;2022-12-16T04:23:20;27.63;;;16.65;;
40849;SDS011;26571;41.610;25.380;2022-12-16T04:26:08;31.02;;;19.25;;
40849;SDS011;26571;41.610;25.380;2022-12-16T04:28:34;26.15;;;16.85;;
40849;SDS011;26571;41.610;25.380;2022-12-16T04:30:59;26.95;;;17.55;;
40849;SDS011;26571;41.610;25.380;2022-12-16T04:33:25;37.72;;;19.83;;
40849;SDS011;26571;41.610;25.380;2022-12-16T04:36:09;29.15;;;21.77;;
40849;SDS011;26571;41.610;25.380;2022-12-16T04:38:53;25.92;;;20.58;;
40849;SDS011;26571;41.610;25.380;2022-12-16T04:41:37;23.60;;;18.35;;
40849;SDS011;26571;41.610;25.380;2022-12-16T04:44:21;14.98;;;13.27;;
40849;SDS011;26571;41.610;25.380;2022-12-16T04:47:05;13.10;;;11.13;;
40849;SDS011;26571;41.610;25.380;2022-12-16T04:49:49;8.65;;;7.15;;
40849;SDS011;26571;41.610;25.380;2022-12-16T04:52:33;8.43;;;7.50;;
40849;SDS011;26571;41.610;25.380;2022-12-16T04:55:17;9.40;;;6.65;;
40849;SDS011;26571;41.610;25.380;2022-12-16T04:58:11;7.40;;;6.13;;
40849;SDS011;26571;41.610;25.380;2022-12-16T05:00:55;6.97;;;6.38;;
40849;SDS011;26571;41.610;25.380;2022-12-16T05:03:39;5.85;;;5.40;;
40849;SDS011;26571;41.610;25.380;2022-12-16T05:06:24;9.82;;;5.90;;
40849;SDS011;26571;41.610;25.380;2022-12-16T05:09:21;8.90;;;6.30;;
40849;SDS011;26571;41.610;25.380;2022-12-16T05:12:05;8.07;;;5.97;;
40849;SDS011;26571;41.610;25.380;2022-12-16T05:14:49;5.05;;;3.95;;
40849;SDS011;26571;41.610;25.380;2022-12-16T05:17:33;5.65;;;4.15;;
40849;SDS011;26571;41.610;25.380;2022-12-16T05:20:17;4.07;;;3.67;;
40849;SDS011;26571;41.610;25.380;2022-12-16T05:23:21;8.32;;;3.92;;
40849;SDS011;26571;41.610;25.380;2022-12-16T05:26:04;11.75;;;4.47;;
40849;SDS011;26571;41.610;25.380;2022-12-16T05:28:49;5.55;;;3.85;;
40849;SDS011;26571;41.610;25.380;2022-12-16T05:31:32;7.93;;;5.18;;
40849;SDS011;26571;41.610;25.380;2022-12-16T05:34:16;5.47;;;4.97;;
40849;SDS011;26571;41.610;25.380;2022-12-16T05:37:00;5.93;;;5.03;;
40849;SDS011;26571;41.610;25.380;2022-12-16T05:39:44;9.00;;;7.25;;
40849;SDS011;26571;41.610;25.380;2022-12-16T05:42:28;8.80;;;6.50;;
40849;SDS011;26571;41.610;25.380;2022-12-16T05:45:12;13.60;;;11.90;;
40849;SDS011;26571;41.610;25.380;2022-12-16T05:47:56;13.85;;;12.45;;
40849;SDS011;26571;41.610;25.380;2022-12-16T05:50:40;7.97;;;7.38;;
40849;SDS011;26571;41.610;25.380;2022-12-16T05:53:24;12.65;;;8.48;;
40849;SDS011;26571;41.610;25.380;2022-12-16T05:56:08;14.00;;;8.73;;
40849;SDS011;26571;41.610;25.380;2022-12-16T05:58:52;7.35;;;6.72;;
40849;SDS011;26571;41.610;25.380;2022-12-16T06:01:36;7.93;;;6.90;;
40849;SDS011;26571;41.610;25.380;2022-12-16T06:04:20;8.98;;;6.70;;
40849;SDS011;26571;41.610;25.380;2022-12-16T06:07:03;10.52;;;7.28;;
40849;SDS011;26571;41.610;25.380;2022-12-16T06:09:47;7.55;;;6.45;;
40849;SDS011;26571;41.610;25.380;2022-12-16T06:12:31;28.98;;;19.83;;
40849;SDS011;26571;41.610;25.380;2022-12-16T06:15:15;14.57;;;10.52;;
40849;SDS011;26571;41.610;25.380;2022-12-16T06:17:59;12.20;;;8.27;;
40849;SDS011;26571;41.610;25.380;2022-12-16T06:20:43;12.60;;;10.95;;
40849;SDS011;26571;41.610;25.380;2022-12-16T06:23:27;10.00;;;7.22;;
40849;SDS011;26571;41.610;25.380;2022-12-16T06:26:11;10.02;;;6.57;;
40849;SDS011;26571;41.610;25.380;2022-12-16T06:28:56;12.88;;;9.43;;
40849;SDS011;26571;41.610;25.380;2022-12-16T06:31:40;7.78;;;6.90;;
40849;SDS011;26571;41.610;25.380;2022-12-16T06:34:24;11.25;;;7.72;;
40849;SDS011;26571;41.610;25.380;2022-12-16T06:37:08;7.32;;;4.85;;
40849;SDS011;26571;41.610;25.380;2022-12-16T06:39:52;8.38;;;5.95;;
40849;SDS011;26571;41.610;25.380;2022-12-16T06:42:39;8.23;;;5.85;;
40849;SDS011;26571;41.610;25.380;2022-12-16T06:45:24;7.57;;;6.10;;
40849;SDS011;26571;41.610;25.380;2022-12-16T06:48:08;4.50;;;3.35;;
40849;SDS011;26571;41.610;25.380;2022-12-16T06:50:52;2.33;;;1.83;;
40849;SDS011;26571;41.610;25.380;2022-12-16T06:53:36;2.97;;;2.78;;
40849;SDS011;26571;41.610;25.380;2022-12-16T06:56:20;4.07;;;2.08;;
40849;SDS011;26571;41.610;25.380;2022-12-16T06:59:04;7.75;;;4.88;;
40849;SDS011;26571;41.610;25.380;2022-12-16T07:01:48;8.73;;;3.28;;
40849;SDS011;26571;41.610;25.380;2022-12-16T07:04:32;12.02;;;6.00;;
40849;SDS011;26571;41.610;25.380;2022-12-16T07:07:16;10.00;;;4.10;;
40849;SDS011;26571;41.610;25.380;2022-12-16T07:10:00;9.18;;;5.75;;
40849;SDS011;26571;41.610;25.380;2022-12-16T07:12:44;8.15;;;5.88;;
40849;SDS011;26571;41.610;25.380;2022-12-16T07:15:28;10.40;;;5.57;;
40849;SDS011;26571;41.610;25.380;2022-12-16T07:18:12;6.00;;;4.28;;
40849;SDS011;26571;41.610;25.380;2022-12-16T07:20:56;4.53;;;4.00;;
40849;SDS011;26571;41.610;25.380;2022-12-16T07:23:40;5.93;;;5.32;;
40849;SDS011;26571;41.610;25.380;2022-12-16T07:26:24;5.22;;;4.72;;
40849;SDS011;26571;41.610;25.380;2022-12-16T07:29:08;7.80;;;5.60;;
40849;SDS011;26571;41.610;25.380;2022-12-16T07:31:52;9.10;;;3.83;;
40849;SDS011;26571;41.610;25.380;2022-12-16T07:34:36;6.32;;;4.07;;
40849;SDS011;26571;41.610;25.380;2022-12-16T07:37:20;63.95;;;33.92;;
40849;SDS011;26571;41.610;25.380;2022-12-16T07:40:04;27.80;;;15.05;;
40849;SDS011;26571;41.610;25.380;2022-12-16T07:42:48;13.90;;;8.68;;
40849;SDS011;26571;41.610;25.380;2022-12-16T07:45:33;23.50;;;14.23;;
40849;SDS011;26571;41.610;25.380;2022-12-16T07:48:17;6.47;;;2.70;;
40849;SDS011;26571;41.610;25.380;2022-12-16T07:51:01;6.82;;;3.75;;
40849;SDS011;26571;41.610;25.380;2022-12-16T07:53:45;7.40;;;4.00;;
40849;SDS011;26571;41.610;25.380;2022-12-16T07:56:29;16.40;;;10.90;;
40849;SDS011;26571;41.610;25.380;2022-12-16T07:59:13;3.42;;;3.05;;
40849;SDS011;26571;41.610;25.380;2022-12-16T08:01:57;2.47;;;0.95;;
40849;SDS011;26571;41.610;25.380;2022-12-16T08:04:41;5.97;;;3.05;;
40849;SDS011;26571;41.610;25.380;2022-12-16T08:07:25;4.13;;;2.63;;
40849;SDS011;26571;41.610;25.380;2022-12-16T08:10:09;8.73;;;5.20;;
40849;SDS011;26571;41.610;25.380;2022-12-16T08:13:02;7.22;;;4.05;;
40849;SDS011;26571;41.610;25.380;2022-12-16T08:15:58;6.65;;;2.30;;
40849;SDS011;26571;41.610;25.380;2022-12-16T08:18:59;3.53;;;2.47;;
40849;SDS011;26571;41.610;25.380;2022-12-16T08:21:42;6.70;;;2.33;;
40849;SDS011;26571;41.610;25.380;2022-12-16T08:24:27;5.00;;;3.13;;
40849;SDS011;26571;41.610;25.380;2022-12-16T08:27:11;6.28;;;3.50;;
40849;SDS011;26571;41.610;25.380;2022-12-16T08:29:55;7.78;;;2.40;;
40849;SDS011;26571;41.610;25.380;2022-12-16T08:32:39;7.65;;;2.47;;
40849;SDS011;26571;41.610;25.380;2022-12-16T08:35:22;6.05;;;3.50;;
40849;SDS011;26571;41.610;25.380;2022-12-16T08:38:06;3.95;;;3.58;;
40849;SDS011;26571;41.610;25.380;2022-12-16T08:40:53;7.53;;;4.25;;
40849;SDS011;26571;41.610;25.380;2022-12-16T08:43:36;4.40;;;2.13;;
40849;SDS011;26571;41.610;25.380;2022-12-16T08:46:20;3.33;;;2.65;;
40849;SDS011;26571;41.610;25.380;2022-12-16T08:49:04;3.35;;;2.50;;
40849;SDS011;26571;41.610;25.380;2022-12-16T08:51:49;3.90;;;2.17;;
40849;SDS011;26571;41.610;25.380;2022-12-16T08:54:33;2.78;;;1.40;;
40849;SDS011;26571;41.610;25.380;2022-12-16T08:57:17;3.20;;;1.00;;
40849;SDS011;26571;41.610;25.380;2022-12-16T09:00:01;2.80;;;2.58;;
40849;SDS011;26571;41.610;25.380;2022-12-16T09:02:47;1.90;;;1.15;;
40849;SDS011;26571;41.610;25.380;2022-12-16T09:08:19;2.08;;;1.50;;
40849;SDS011;26571;41.610;25.380;2022-12-16T09:11:03;1.98;;;1.35;;
40849;SDS011;26571;41.610;25.380;2022-12-16T09:13:48;5.53;;;1.45;;
40849;SDS011;26571;41.610;25.380;2022-12-16T09:16:31;5.50;;;2.92;;
40849;SDS011;26571;41.610;25.380;2022-12-16T09:19:15;7.32;;;3.13;;
40849;SDS011;26571;41.610;25.380;2022-12-16T09:21:59;4.30;;;3.15;;
40849;SDS011;26571;41.610;25.380;2022-12-16T09:24:44;12.00;;;1.98;;
40849;SDS011;26571;41.610;25.380;2022-12-16T09:27:27;6.13;;;2.65;;
40849;SDS011;26571;41.610;25.380;2022-12-16T09:30:11;5.13;;;2.90;;
40849;SDS011;26571;41.610;25.380;2022-12-16T09:32:55;1.58;;;0.88;;
40849;SDS011;26571;41.610;25.380;2022-12-16T09:35:39;3.80;;;0.82;;
40849;SDS011;26571;41.610;25.380;2022-12-16T09:38:23;6.38;;;2.55;;
40849;SDS011;26571;41.610;25.380;2022-12-16T09:41:19;0.90;;;0.50;;
40849;SDS011;26571;41.610;25.380;2022-12-16T09:53:14;1.60;;;0.82;;
40849;SDS011;26571;41.610;25.380;2022-12-16T09:56:02;2.80;;;0.90;;
40849;SDS011;26571;41.610;25.380;2022-12-16T09:58:50;2.95;;;0.88;;
40849;SDS011;26571;41.610;25.380;2022-12-16T10:01:41;4.10;;;0.68;;
40849;SDS011;26571;41.610;25.380;2022-12-16T10:04:26;3.85;;;1.00;;
40849;SDS011;26571;41.610;25.380;2022-12-16T10:07:16;3.08;;;0.77;;
40849;SDS011;26571;41.610;25.380;2022-12-16T10:13:11;4.80;;;1.38;;
40849;SDS011;26571;41.610;25.380;2022-12-16T10:16:05;0.65;;;0.60;;
40849;SDS011;26571;41.610;25.380;2022-12-16T10:28:11;4.38;;;1.38;;
40849;SDS011;26571;41.610;25.380;2022-12-16T10:31:15;1.70;;;1.10;;
40849;SDS011;26571;41.610;25.380;2022-12-16T10:34:00;4.22;;;0.80;;
40849;SDS011;26571;41.610;25.380;2022-12-16T10:36:46;3.10;;;1.00;;
40849;SDS011;26571;41.610;25.380;2022-12-16T10:42:32;2.10;;;0.73;;
40849;SDS011;26571;41.610;25.380;2022-12-16T10:45:30;1.95;;;1.10;;
40849;SDS011;26571;41.610;25.380;2022-12-16T10:48:22;5.68;;;1.40;;
40849;SDS011;26571;41.610;25.380;2022-12-16T10:51:11;7.72;;;2.75;;
40849;SDS011;26571;41.610;25.380;2022-12-16T10:53:58;4.60;;;1.15;;
40849;SDS011;26571;41.610;25.380;2022-12-16T10:56:57;2.85;;;1.50;;
40849;SDS011;26571;41.610;25.380;2022-12-16T11:03:23;4.45;;;2.03;;
40849;SDS011;26571;41.610;25.380;2022-12-16T11:06:09;2.20;;;1.15;;
40849;SDS011;26571;41.610;25.380;2022-12-16T11:08:55;5.20;;;2.25;;
40849;SDS011;26571;41.610;25.380;2022-12-16T11:12:41;4.43;;;2.00;;
40849;SDS011;26571;41.610;25.380;2022-12-16T11:15:26;5.40;;;1.98;;
40849;SDS011;26571;41.610;25.380;2022-12-16T11:18:15;7.40;;;1.85;;
40849;SDS011;26571;41.610;25.380;2022-12-16T11:24:13;4.35;;;1.27;;
40849;SDS011;26571;41.610;25.380;2022-12-16T11:27:03;6.05;;;1.92;;
40849;SDS011;26571;41.610;25.380;2022-12-16T11:30:03;2.65;;;0.95;;
40849;SDS011;26571;41.610;25.380;2022-12-16T11:32:59;3.35;;;1.38;;
40849;SDS011;26571;41.610;25.380;2022-12-16T11:36:04;5.13;;;2.90;;
40849;SDS011;26571;41.610;25.380;2022-12-16T11:38:54;5.45;;;1.77;;
40849;SDS011;26571;41.610;25.380;2022-12-16T11:41:40;5.43;;;2.15;;
40849;SDS011;26571;41.610;25.380;2022-12-16T11:44:29;3.25;;;2.17;;
40849;SDS011;26571;41.610;25.380;2022-12-16T11:47:26;5.18;;;0.80;;
40849;SDS011;26571;41.610;25.380;2022-12-16T11:50:20;3.17;;;1.25;;
40849;SDS011;26571;41.610;25.380;2022-12-16T11:53:29;7.57;;;2.40;;
40849;SDS011;26571;41.610;25.380;2022-12-16T11:56:19;2.35;;;1.45;;
40849;SDS011;26571;41.610;25.380;2022-12-16T12:02:02;1.60;;;1.05;;
40849;SDS011;26571;41.610;25.380;2022-12-16T12:04:53;21.58;;;11.00;;
40849;SDS011;26571;41.610;25.380;2022-12-16T12:07:43;8.35;;;7.00;;
40849;SDS011;26571;41.610;25.380;2022-12-16T12:10:50;5.57;;;1.73;;
40849;SDS011;26571;41.610;25.380;2022-12-16T12:13:52;2.65;;;1.45;;
40849;SDS011;26571;41.610;25.380;2022-12-16T12:17:03;3.70;;;1.73;;
40849;SDS011;26571;41.610;25.380;2022-12-16T12:23:05;4.13;;;1.60;;
40849;SDS011;26571;41.610;25.380;2022-12-16T12:26:33;5.75;;;1.48;;
40849;SDS011;26571;41.610;25.380;2022-12-16T12:29:17;4.70;;;1.83;;
40849;SDS011;26571;41.610;25.380;2022-12-16T12:38:04;2.95;;;1.40;;
40849;SDS011;26571;41.610;25.380;2022-12-16T12:41:11;3.55;;;1.42;;
40849;SDS011;26571;41.610;25.380;2022-12-16T12:44:32;6.03;;;1.40;;
40849;SDS011;26571;41.610;25.380;2022-12-16T12:47:28;8.32;;;1.88;;
40849;SDS011;26571;41.610;25.380;2022-12-16T12:50:17;2.40;;;2.10;;
40849;SDS011;26571;41.610;25.380;2022-12-16T12:53:21;5.53;;;2.22;;
40849;SDS011;26571;41.610;25.380;2022-12-16T12:59:11;5.85;;;3.05;;
40849;SDS011;26571;41.610;25.380;2022-12-16T13:02:03;7.40;;;1.75;;
40849;SDS011;26571;41.610;25.380;2022-12-16T13:04:57;6.55;;;3.00;;
40849;SDS011;26571;41.610;25.380;2022-12-16T13:07:42;5.57;;;3.92;;
40849;SDS011;26571;41.610;25.380;2022-12-16T13:10:31;6.10;;;3.78;;
40849;SDS011;26571;41.610;25.380;2022-12-16T13:16:09;5.38;;;2.53;;
40849;SDS011;26571;41.610;25.380;2022-12-16T13:28:24;5.65;;;3.70;;
40849;SDS011;26571;41.610;25.380;2022-12-16T13:31:12;9.48;;;4.25;;
40849;SDS011;26571;41.610;25.380;2022-12-16T13:33:59;7.03;;;3.75;;
40849;SDS011;26571;41.610;25.380;2022-12-16T13:36:51;6.55;;;4.03;;
40849;SDS011;26571;41.610;25.380;2022-12-16T13:40:00;6.13;;;4.15;;
40849;SDS011;26571;41.610;25.380;2022-12-16T13:48:34;11.77;;;7.10;;
40849;SDS011;26571;41.610;25.380;2022-12-16T13:54:51;27.95;;;9.63;;
40849;SDS011;26571;41.610;25.380;2022-12-16T13:57:41;12.57;;;6.55;;
40849;SDS011;26571;41.610;25.380;2022-12-16T14:00:26;10.48;;;6.78;;
40849;SDS011;26571;41.610;25.380;2022-12-16T14:03:19;15.13;;;6.18;;
40849;SDS011;26571;41.610;25.380;2022-12-16T14:06:12;13.25;;;7.13;;
40849;SDS011;26571;41.610;25.380;2022-12-16T14:09:00;11.68;;;5.40;;
40849;SDS011;26571;41.610;25.380;2022-12-16T14:14:54;8.88;;;4.47;;
40849;SDS011;26571;41.610;25.380;2022-12-16T14:17:57;15.98;;;8.52;;
40849;SDS011;26571;41.610;25.380;2022-12-16T14:20:49;19.45;;;10.00;;
40849;SDS011;26571;41.610;25.380;2022-12-16T14:23:52;8.68;;;5.35;;
40849;SDS011;26571;41.610;25.380;2022-12-16T14:26:43;6.60;;;3.70;;
40849;SDS011;26571;41.610;25.380;2022-12-16T14:29:28;7.55;;;4.63;;
40849;SDS011;26571;41.610;25.380;2022-12-16T14:32:27;4.68;;;2.97;;
40849;SDS011;26571;41.610;25.380;2022-12-16T14:35:14;5.03;;;2.95;;
40849;SDS011;26571;41.610;25.380;2022-12-16T14:41:14;7.25;;;3.78;;
40849;SDS011;26571;41.610;25.380;2022-12-16T14:43:59;9.68;;;4.70;;
40849;SDS011;26571;41.610;25.380;2022-12-16T14:46:51;9.48;;;3.65;;
40849;SDS011;26571;41.610;25.380;2022-12-16T14:49:35;14.02;;;7.18;;
40849;SDS011;26571;41.610;25.380;2022-12-16T14:52:32;5.50;;;4.32;;
40849;SDS011;26571;41.610;25.380;2022-12-16T14:55:18;18.77;;;8.38;;
40849;SDS011;26571;41.610;25.380;2022-12-16T14:58:10;13.75;;;8.55;;
40849;SDS011;26571;41.610;25.380;2022-12-16T15:00:56;14.98;;;6.07;;
40849;SDS011;26571;41.610;25.380;2022-12-16T15:03:46;10.98;;;5.97;;
40849;SDS011;26571;41.610;25.380;2022-12-16T15:06:36;7.35;;;4.75;;
40849;SDS011;26571;41.610;25.380;2022-12-16T15:09:28;4.82;;;3.45;;
40849;SDS011;26571;41.610;25.380;2022-12-16T15:12:17;9.15;;;5.47;;
40849;SDS011;26571;41.610;25.380;2022-12-16T15:15:05;13.88;;;7.90;;
40849;SDS011;26571;41.610;25.380;2022-12-16T15:17:55;21.42;;;12.65;;
40849;SDS011;26571;41.610;25.380;2022-12-16T15:20:44;15.70;;;9.57;;
40849;SDS011;26571;41.610;25.380;2022-12-16T15:23:37;11.38;;;5.85;;
40849;SDS011;26571;41.610;25.380;2022-12-16T15:26:23;11.75;;;6.07;;
40849;SDS011;26571;41.610;25.380;2022-12-16T15:29:28;7.55;;;5.22;;
40849;SDS011;26571;41.610;25.380;2022-12-16T15:35:07;10.90;;;4.82;;
40849;SDS011;26571;41.610;25.380;2022-12-16T15:37:51;9.30;;;3.58;;
40849;SDS011;26571;41.610;25.380;2022-12-16T15:40:34;15.63;;;7.32;;
40849;SDS011;26571;41.610;25.380;2022-12-16T15:46:14;5.85;;;4.65;;
40849;SDS011;26571;41.610;25.380;2022-12-16T15:49:00;10.15;;;3.75;;
40849;SDS011;26571;41.610;25.380;2022-12-16T15:51:45;7.20;;;6.50;;
40849;SDS011;26571;41.610;25.380;2022-12-16T15:54:31;11.50;;;3.72;;
40849;SDS011;26571;41.610;25.380;2022-12-16T15:57:23;11.57;;;8.55;;
40849;SDS011;26571;41.610;25.380;2022-12-16T16:00:17;10.70;;;4.60;;
40849;SDS011;26571;41.610;25.380;2022-12-16T16:03:04;6.38;;;5.25;;
40849;SDS011;26571;41.610;25.380;2022-12-16T16:05:58;4.65;;;2.35;;
40849;SDS011;26571;41.610;25.380;2022-12-16T16:08:42;6.22;;;3.58;;
40849;SDS011;26571;41.610;25.380;2022-12-16T16:11:26;8.07;;;3.38;;
40849;SDS011;26571;41.610;25.380;2022-12-16T16:14:10;8.50;;;3.42;;
40849;SDS011;26571;41.610;25.380;2022-12-16T16:16:54;9.27;;;3.45;;
40849;SDS011;26571;41.610;25.380;2022-12-16T16:19:37;10.50;;;3.90;;
40849;SDS011;26571;41.610;25.380;2022-12-16T16:22:21;6.85;;;2.88;;
40849;SDS011;26571;41.610;25.380;2022-12-16T16:25:05;8.75;;;5.22;;
40849;SDS011;26571;41.610;25.380;2022-12-16T16:27:50;9.95;;;3.63;;
40849;SDS011;26571;41.610;25.380;2022-12-16T16:30:34;5.72;;;3.83;;
40849;SDS011;26571;41.610;25.380;2022-12-16T16:33:18;8.00;;;3.88;;
40849;SDS011;26571;41.610;25.380;2022-12-16T16:36:08;12.48;;;4.40;;
40849;SDS011;26571;41.610;25.380;2022-12-16T16:38:58;11.25;;;4.15;;
40849;SDS011;26571;41.610;25.380;2022-12-16T16:41:42;12.52;;;3.40;;
40849;SDS011;26571;41.610;25.380;2022-12-16T16:44:26;10.63;;;3.00;;
40849;SDS011;26571;41.610;25.380;2022-12-16T16:47:14;8.07;;;3.15;;
40849;SDS011;26571;41.610;25.380;2022-12-16T16:49:59;6.28;;;3.30;;
40849;SDS011;26571;41.610;25.380;2022-12-16T16:52:43;8.07;;;3.92;;
40849;SDS011;26571;41.610;25.380;2022-12-16T16:55:27;6.10;;;2.83;;
40849;SDS011;26571;41.610;25.380;2022-12-16T16:58:12;5.65;;;3.28;;
40849;SDS011;26571;41.610;25.380;2022-12-16T17:00:58;9.18;;;3.40;;
40849;SDS011;26571;41.610;25.380;2022-12-16T17:03:42;18.60;;;6.35;;
40849;SDS011;26571;41.610;25.380;2022-12-16T17:06:26;10.27;;;5.28;;
40849;SDS011;26571;41.610;25.380;2022-12-16T17:09:10;12.73;;;4.75;;
40849;SDS011;26571;41.610;25.380;2022-12-16T17:11:54;6.75;;;3.95;;
40849;SDS011;26571;41.610;25.380;2022-12-16T17:14:38;4.97;;;2.83;;
40849;SDS011;26571;41.610;25.380;2022-12-16T17:17:22;7.10;;;2.30;;
40849;SDS011;26571;41.610;25.380;2022-12-16T17:20:06;10.32;;;3.33;;
40849;SDS011;26571;41.610;25.380;2022-12-16T17:22:56;9.98;;;3.10;;
40849;SDS011;26571;41.610;25.380;2022-12-16T17:25:40;8.35;;;3.67;;
40849;SDS011;26571;41.610;25.380;2022-12-16T17:28:24;8.82;;;3.15;;
40849;SDS011;26571;41.610;25.380;2022-12-16T17:31:08;9.93;;;3.65;;
40849;SDS011;26571;41.610;25.380;2022-12-16T17:33:53;8.18;;;2.50;;
40849;SDS011;26571;41.610;25.380;2022-12-16T17:36:37;7.45;;;3.47;;
40849;SDS011;26571;41.610;25.380;2022-12-16T17:39:21;11.15;;;3.25;;
40849;SDS011;26571;41.610;25.380;2022-12-16T17:42:05;5.93;;;2.25;;
40849;SDS011;26571;41.610;25.380;2022-12-16T17:44:49;4.35;;;2.08;;
40849;SDS011;26571;41.610;25.380;2022-12-16T17:47:33;8.00;;;1.90;;
40849;SDS011;26571;41.610;25.380;2022-12-16T17:50:17;8.85;;;3.28;;
40849;SDS011;26571;41.610;25.380;2022-12-16T17:53:01;5.40;;;2.22;;
40849;SDS011;26571;41.610;25.380;2022-12-16T17:55:45;8.95;;;2.33;;